createdAt,value
2023-03-07T00:08:37.250Z,5143.36279
2023-03-07T00:23:40.097Z,4695.50098
2023-03-07T00:38:42.612Z,3564.45972
2023-03-07T00:53:45.630Z,2241.47803
2023-03-07T01:08:48.401Z,1395.63733
2023-03-07T01:23:52.065Z,728.72437
2023-03-07T01:38:55.144Z,232.06401
2023-03-07T01:53:57.640Z,35.78557
2023-03-07T02:09:00.429Z,2.16882
2023-03-07T02:24:03.403Z,0
2023-03-07T02:39:05.916Z,0
2023-03-07T02:54:08.648Z,0
2023-03-07T03:09:11.034Z,0
2023-03-07T03:24:13.850Z,0
2023-03-07T03:39:16.585Z,0
2023-03-07T03:54:19.259Z,0
2023-03-07T04:09:22.102Z,0
2023-03-07T04:24:24.828Z,0
2023-03-07T04:39:27.238Z,0
2023-03-07T04:54:29.588Z,0
2023-03-07T05:09:31.919Z,0
2023-03-07T05:24:34.207Z,0
2023-03-07T05:39:36.532Z,0
2023-03-07T05:54:38.864Z,0
2023-03-07T06:09:41.213Z,0
2023-03-07T06:24:43.586Z,0
2023-03-07T06:39:45.980Z,0
2023-03-07T06:54:48.375Z,0
2023-03-07T07:09:50.668Z,0
2023-03-07T07:24:52.956Z,0
2023-03-07T07:39:55.404Z,0
2023-03-07T07:54:57.691Z,0
2023-03-07T08:09:59.960Z,0
2023-03-07T08:25:02.302Z,0
2023-03-07T08:40:04.661Z,0
2023-03-07T08:55:06.931Z,0
2023-03-07T09:10:09.235Z,0
2023-03-07T09:25:11.712Z,0
2023-03-07T09:40:14.035Z,0
2023-03-07T09:55:16.385Z,0
2023-03-07T10:10:18.658Z,0
2023-03-07T10:25:20.940Z,0
2023-03-07T10:40:23.258Z,0
2023-03-07T10:55:25.576Z,0
2023-03-07T11:10:27.951Z,0
2023-03-07T11:25:30.290Z,0
2023-03-07T11:40:32.754Z,0
2023-03-07T11:55:36.105Z,0
2023-03-07T12:10:38.484Z,0
2023-03-07T12:25:40.865Z,0
2023-03-07T12:40:43.148Z,0
2023-03-07T12:55:45.458Z,0
2023-03-07T13:10:47.862Z,0
2023-03-07T13:25:50.178Z,0
2023-03-07T13:40:52.485Z,0
2023-03-07T13:55:54.839Z,2.16882
2023-03-07T14:10:57.185Z,33.61675
2023-03-07T14:25:59.490Z,198.44727
2023-03-07T14:41:01.811Z,530.2771
2023-03-07T14:56:04.281Z,1037.78162
2023-03-07T15:11:06.595Z,1737.22681
2023-03-07T15:26:08.900Z,2538.60669
2023-03-07T15:41:11.221Z,3706.51758
2023-03-07T15:56:13.556Z,5679.06201
2023-03-07T16:11:15.910Z,9268.46289
2023-03-07T16:26:18.271Z,11149.91699
2023-03-07T16:41:20.649Z,13693.94531
2023-03-07T16:56:22.991Z,20880.33984
2023-03-07T17:11:25.494Z,11671.51855
2023-03-07T17:26:27.826Z,12057.56836
2023-03-07T17:41:30.178Z,12060.82227
2023-03-07T17:56:32.495Z,15275.0166
2023-03-07T18:11:34.896Z,17013.32812
2023-03-07T18:26:37.203Z,15593.83398
2023-03-07T18:41:39.519Z,14674.25293
2023-03-07T18:56:41.878Z,18292.93359
2023-03-07T19:11:44.461Z,16924.40625
2023-03-07T19:26:46.763Z,28814.97656
2023-03-07T19:41:49.135Z,31459.85547
2023-03-07T19:56:51.564Z,27396.56641
2023-03-07T20:11:53.875Z,20801.17773
2023-03-07T20:26:56.176Z,20027.99219
2023-03-07T20:41:58.544Z,18750.55469
2023-03-07T20:57:00.865Z,17440.58594
2023-03-07T21:12:03.157Z,19213.59961
2023-03-07T21:27:05.494Z,21470.25781
2023-03-07T21:42:07.772Z,24850.36914
2023-03-07T21:57:10.137Z,17544.68945
2023-03-07T22:12:12.491Z,14095.17773
2023-03-07T22:27:14.784Z,11672.60254
2023-03-07T22:42:17.100Z,10891.82715
2023-03-07T22:57:19.377Z,10854.95703
2023-03-07T23:12:21.875Z,8490.94043
2023-03-07T23:27:24.230Z,7398.93799
2023-03-07T23:42:26.544Z,7828.36475
2023-03-07T23:57:28.943Z,7516.05469
